createdAt,value
2019-05-21T00:01:34.519Z,19.43
2019-05-21T00:04:06.566Z,22.07
2019-05-21T00:06:38.695Z,21.50
2019-05-21T00:09:10.873Z,22.07
2019-05-21T00:11:42.776Z,20.47
2019-05-21T00:14:15.106Z,19.53
2019-05-21T00:16:47.451Z,20.83
2019-05-21T00:19:19.418Z,19.63
2019-05-21T00:21:51.792Z,21.33
2019-05-21T00:24:24.007Z,21.07
2019-05-21T00:26:56.194Z,19.33
2019-05-21T00:30:05.167Z,19.00
2019-05-21T00:33:14.326Z,19.37
2019-05-21T00:36:24.803Z,18.53
2019-05-21T00:39:33.677Z,20.57
2019-05-21T00:42:05.685Z,19.97
2019-05-21T00:44:40.065Z,19.43
2019-05-21T00:47:12.036Z,20.73
2019-05-21T00:49:44.132Z,18.80
2019-05-21T00:52:16.188Z,20.00
2019-05-21T00:54:48.507Z,19.57
2019-05-21T00:57:21.132Z,19.43
2019-05-21T00:59:56.461Z,20.80
2019-05-21T01:02:29.100Z,20.83
2019-05-21T01:05:01.781Z,20.67
2019-05-21T01:07:34.501Z,19.80
2019-05-21T01:10:06.983Z,20.53
2019-05-21T01:12:39.526Z,21.03
2019-05-21T01:15:11.988Z,19.63
2019-05-21T01:17:44.578Z,20.67
2019-05-21T01:20:17.314Z,20.70
2019-05-21T01:22:50.106Z,20.03
2019-05-21T01:25:22.299Z,19.13
2019-05-21T01:27:55.147Z,21.40
2019-05-21T01:30:27.351Z,20.37
2019-05-21T01:32:59.288Z,19.73
2019-05-21T01:35:31.665Z,20.10
2019-05-21T01:38:03.764Z,19.90
2019-05-21T01:40:36.251Z,20.17
2019-05-21T01:43:09.070Z,20.57
2019-05-21T01:45:41.546Z,21.03
2019-05-21T01:48:13.543Z,19.17
2019-05-21T01:50:45.730Z,19.47
2019-05-21T01:53:18.606Z,20.97
2019-05-21T01:55:50.826Z,19.77
2019-05-21T01:58:22.963Z,20.20
2019-05-21T02:00:55.361Z,20.40
2019-05-21T02:03:28.552Z,20.80
2019-05-21T02:06:01.132Z,20.13
2019-05-21T02:08:33.507Z,20.73
2019-05-21T02:11:05.601Z,20.30
2019-05-21T02:13:38.088Z,21.13
2019-05-21T02:16:10.216Z,21.00
2019-05-21T02:18:42.875Z,20.50
2019-05-21T02:21:15.540Z,20.43
2019-05-21T02:23:48.237Z,21.50
2019-05-21T02:26:20.564Z,20.47
2019-05-21T02:28:52.594Z,20.17
2019-05-21T02:31:24.763Z,21.47
2019-05-21T02:33:57.317Z,20.33
2019-05-21T02:36:29.284Z,21.10
2019-05-21T02:39:01.969Z,21.07
2019-05-21T02:41:33.905Z,20.43
2019-05-21T02:44:05.841Z,21.57
2019-05-21T02:46:38.015Z,20.83
2019-05-21T02:49:10.080Z,20.90
2019-05-21T02:51:41.944Z,20.80
2019-05-21T02:54:13.757Z,20.93
2019-05-21T02:56:45.843Z,21.57
2019-05-21T02:59:17.920Z,21.70
2019-05-21T03:02:05.444Z,21.40
2019-05-21T03:04:38.071Z,21.23
2019-05-21T03:07:19.102Z,21.20
2019-05-21T03:09:51.164Z,21.07
2019-05-21T03:12:23.012Z,21.60
2019-05-21T03:14:54.845Z,21.33
2019-05-21T03:17:27.189Z,20.83
2019-05-21T03:19:59.563Z,21.97
2019-05-21T03:22:31.410Z,20.17
2019-05-21T03:25:04.863Z,21.73
2019-05-21T03:27:36.818Z,21.77
2019-05-21T03:30:08.858Z,20.83
2019-05-21T03:32:40.630Z,21.40
2019-05-21T03:35:12.833Z,20.37
2019-05-21T03:37:44.647Z,20.63
2019-05-21T03:40:16.755Z,20.23
2019-05-21T03:42:48.755Z,20.30
2019-05-21T03:45:20.835Z,20.10
2019-05-21T03:47:52.582Z,20.30
2019-05-21T03:50:24.614Z,19.17
2019-05-21T03:52:56.458Z,20.67
2019-05-21T03:55:28.431Z,21.03
2019-05-21T03:58:00.575Z,20.50
2019-05-21T04:00:32.965Z,20.27
2019-05-21T04:03:05.479Z,19.63
2019-05-21T04:05:37.489Z,20.83
2019-05-21T04:08:09.358Z,21.07
2019-05-21T04:10:41.517Z,19.63
2019-05-21T04:13:13.850Z,19.87
2019-05-21T04:16:01.459Z,20.20
2019-05-21T04:18:41.578Z,20.13
2019-05-21T04:21:14.259Z,20.13
2019-05-21T04:23:46.347Z,20.13
2019-05-21T04:26:18.260Z,19.43
2019-05-21T04:28:50.428Z,18.27
2019-05-21T04:31:22.623Z,20.13
2019-05-21T04:33:54.859Z,19.43
2019-05-21T04:36:26.804Z,18.60
2019-05-21T04:38:59.151Z,17.23
2019-05-21T04:41:49.643Z,17.60
2019-05-21T04:44:21.677Z,16.60
2019-05-21T04:46:53.766Z,16.20
2019-05-21T04:49:25.724Z,15.27
2019-05-21T04:51:58.177Z,15.07
2019-05-21T04:54:30.155Z,14.33
2019-05-21T04:57:02.392Z,13.83
2019-05-21T04:59:34.867Z,14.30
2019-05-21T05:02:07.034Z,13.83
2019-05-21T05:04:39.100Z,14.43
2019-05-21T05:07:26.914Z,14.50
2019-05-21T05:09:45.131Z,14.67
2019-05-21T05:12:17.444Z,14.50
2019-05-21T05:14:49.510Z,13.97
2019-05-21T05:17:21.367Z,13.97
2019-05-21T05:19:53.189Z,14.60
2019-05-21T05:22:25.795Z,14.67
2019-05-21T05:24:57.621Z,13.87
2019-05-21T05:27:30.141Z,14.10
2019-05-21T05:30:03.014Z,13.63
2019-05-21T05:32:34.930Z,12.77
2019-05-21T05:35:07.245Z,13.23
2019-05-21T05:37:44.287Z,12.93
2019-05-21T05:40:14.733Z,12.60
2019-05-21T05:42:47.198Z,13.27
2019-05-21T05:45:19.507Z,13.33
2019-05-21T05:47:51.595Z,12.90
2019-05-21T05:50:27.054Z,11.33
2019-05-21T05:52:58.971Z,12.10
2019-05-21T05:55:31.355Z,12.43
2019-05-21T05:58:04.236Z,12.00
2019-05-21T06:00:36.803Z,11.90
2019-05-21T06:03:08.883Z,12.47
2019-05-21T06:05:40.903Z,12.40
2019-05-21T06:08:13.192Z,12.13
2019-05-21T06:10:45.059Z,13.23
2019-05-21T06:13:16.784Z,11.83
2019-05-21T06:15:48.695Z,11.37
2019-05-21T06:18:20.958Z,12.17
2019-05-21T06:20:52.906Z,12.07
2019-05-21T06:23:24.854Z,12.40
2019-05-21T06:25:56.680Z,12.47
2019-05-21T06:28:28.430Z,12.17
2019-05-21T06:31:00.642Z,12.53
2019-05-21T06:33:32.760Z,12.70
2019-05-21T06:36:04.723Z,12.87
2019-05-21T06:38:37.227Z,13.07
2019-05-21T06:41:09.386Z,12.73
2019-05-21T06:43:41.456Z,13.77
2019-05-21T06:46:13.488Z,13.43
2019-05-21T06:48:45.516Z,14.70
2019-05-21T06:51:17.290Z,15.47
2019-05-21T06:53:49.540Z,15.57
2019-05-21T06:56:21.418Z,12.23
2019-05-21T06:58:53.469Z,12.93
2019-05-21T07:01:28.872Z,12.30
2019-05-21T07:03:59.518Z,15.10
2019-05-21T07:06:31.813Z,16.23
2019-05-21T07:09:05.330Z,17.33
2019-05-21T07:11:37.250Z,20.97
2019-05-21T07:14:09.225Z,12.00
2019-05-21T07:16:41.248Z,10.37
2019-05-21T07:19:13.096Z,10.73
2019-05-21T07:21:44.842Z,11.40
2019-05-21T07:24:16.802Z,10.60
2019-05-21T07:26:48.966Z,11.30
2019-05-21T07:29:20.891Z,11.67
2019-05-21T07:31:52.700Z,13.23
2019-05-21T07:34:24.473Z,13.63
2019-05-21T07:36:56.329Z,11.67
2019-05-21T07:39:28.226Z,11.50
2019-05-21T07:42:00.916Z,12.27
2019-05-21T07:44:33.127Z,13.23
2019-05-21T07:47:05.437Z,14.33
2019-05-21T07:49:37.348Z,14.43
2019-05-21T07:52:09.337Z,9.77
2019-05-21T07:54:42.954Z,10.90
2019-05-21T07:57:16.150Z,8.73
2019-05-21T07:59:49.651Z,9.27
2019-05-21T08:02:22.589Z,7.70
2019-05-21T08:04:56.305Z,6.70
2019-05-21T08:07:29.013Z,7.00
2019-05-21T08:10:01.039Z,7.60
2019-05-21T08:12:39.110Z,7.40
2019-05-21T08:15:07.793Z,6.80
2019-05-21T08:17:39.736Z,7.80
2019-05-21T08:20:12.394Z,6.90
2019-05-21T08:22:44.643Z,6.57
2019-05-21T08:25:16.511Z,7.57
2019-05-21T08:27:48.929Z,5.53
2019-05-21T08:30:21.114Z,5.67
2019-05-21T08:32:53.401Z,6.30
2019-05-21T08:35:25.744Z,4.93
2019-05-21T08:37:58.328Z,5.40
2019-05-21T08:40:30.572Z,4.77
2019-05-21T08:43:02.498Z,5.33
2019-05-21T08:45:54.034Z,4.33
2019-05-21T08:48:26.223Z,4.30
2019-05-21T08:50:58.266Z,4.20
2019-05-21T08:53:30.158Z,4.33
2019-05-21T08:56:02.384Z,4.40
2019-05-21T08:58:34.272Z,4.17
2019-05-21T09:01:06.262Z,3.80
2019-05-21T09:03:39.419Z,3.53
2019-05-21T09:06:11.853Z,3.80
2019-05-21T09:08:43.915Z,4.10
2019-05-21T09:11:15.681Z,3.90
2019-05-21T09:13:47.423Z,3.43
2019-05-21T09:16:19.187Z,6.03
2019-05-21T09:18:51.920Z,5.30
2019-05-21T09:21:25.188Z,5.93
2019-05-21T09:23:58.934Z,3.00
2019-05-21T09:26:32.091Z,3.13
2019-05-21T09:29:04.779Z,2.63
2019-05-21T09:31:37.189Z,3.10
2019-05-21T09:34:09.847Z,2.93
2019-05-21T09:36:41.808Z,2.43
2019-05-21T09:39:13.920Z,2.57
2019-05-21T09:41:46.004Z,2.73
2019-05-21T09:44:18.015Z,3.57
2019-05-21T09:46:50.124Z,3.10
2019-05-21T09:49:21.890Z,3.23
2019-05-21T09:51:53.726Z,3.40
2019-05-21T09:54:25.534Z,3.37
2019-05-21T09:56:58.766Z,2.80
2019-05-21T09:59:38.213Z,3.50
2019-05-21T10:02:13.693Z,3.73
2019-05-21T10:04:45.726Z,3.40
2019-05-21T10:07:17.625Z,3.17
2019-05-21T10:09:49.399Z,3.10
2019-05-21T10:12:21.156Z,2.83
2019-05-21T10:14:53.136Z,4.07
2019-05-21T10:17:24.957Z,3.33
2019-05-21T10:19:58.927Z,3.30
2019-05-21T10:22:31.157Z,3.10
2019-05-21T10:25:03.869Z,3.73
2019-05-21T10:27:36.020Z,2.83
2019-05-21T10:30:09.129Z,3.27
2019-05-21T10:32:41.011Z,3.37
2019-05-21T10:35:12.948Z,3.70
2019-05-21T10:37:54.598Z,3.73
2019-05-21T10:40:20.735Z,3.50
2019-05-21T10:42:52.562Z,3.20
2019-05-21T10:45:24.315Z,3.40
2019-05-21T10:47:56.347Z,4.47
2019-05-21T10:50:28.562Z,4.57
2019-05-21T10:53:00.716Z,4.40
2019-05-21T10:55:32.980Z,3.87
2019-05-21T10:58:04.864Z,3.70
2019-05-21T11:00:37.900Z,3.77
2019-05-21T11:03:13.960Z,3.53
2019-05-21T11:06:07.443Z,3.70
2019-05-21T11:08:25.651Z,4.00
2019-05-21T11:10:57.880Z,3.80
2019-05-21T11:13:29.809Z,3.77
2019-05-21T11:16:01.704Z,4.57
2019-05-21T11:18:33.544Z,4.20
2019-05-21T11:21:05.419Z,3.53
2019-05-21T11:23:37.302Z,3.73
2019-05-21T11:26:09.480Z,3.73
2019-05-21T11:28:41.757Z,3.97
2019-05-21T11:31:13.605Z,3.70
2019-05-21T11:33:45.454Z,4.47
2019-05-21T11:36:17.500Z,3.90
2019-05-21T11:38:49.243Z,4.27
2019-05-21T11:41:20.950Z,3.90
2019-05-21T11:43:52.795Z,4.97
2019-05-21T11:46:24.648Z,5.40
2019-05-21T11:48:56.420Z,5.00
2019-05-21T11:51:28.170Z,5.90
2019-05-21T11:53:59.916Z,4.53
2019-05-21T11:56:31.732Z,4.40
2019-05-21T11:59:03.611Z,4.00
2019-05-21T12:01:36.145Z,4.43
2019-05-21T12:04:07.904Z,4.60
2019-05-21T12:06:39.658Z,4.77
2019-05-21T12:09:11.415Z,5.70
2019-05-21T12:11:43.269Z,4.80
2019-05-21T12:14:15.267Z,6.30
2019-05-21T12:16:47.655Z,4.27
2019-05-21T12:19:19.428Z,4.43
2019-05-21T12:21:51.320Z,4.33
2019-05-21T12:24:23.073Z,4.50
2019-05-21T12:26:55.171Z,4.97
2019-05-21T12:29:27.202Z,4.90
2019-05-21T12:31:59.267Z,4.80
2019-05-21T12:34:31.162Z,5.03
2019-05-21T12:37:03.158Z,7.13
2019-05-21T12:39:34.969Z,9.60
2019-05-21T12:42:06.783Z,4.50
2019-05-21T12:44:38.855Z,5.47
2019-05-21T12:47:10.754Z,4.80
2019-05-21T12:49:42.939Z,4.50
2019-05-21T12:52:14.776Z,4.10
2019-05-21T12:54:46.777Z,4.00
2019-05-21T12:57:18.580Z,4.73
2019-05-21T12:59:50.318Z,4.93
2019-05-21T13:02:22.241Z,4.60
2019-05-21T13:04:53.980Z,4.77
2019-05-21T13:07:25.733Z,4.30
2019-05-21T13:09:57.634Z,4.30
2019-05-21T13:12:29.425Z,5.13
2019-05-21T13:15:01.404Z,5.10
2019-05-21T13:17:33.142Z,13.47
2019-05-21T13:20:07.433Z,5.07
2019-05-21T13:22:41.278Z,3.97
2019-05-21T13:25:13.754Z,4.20
2019-05-21T13:27:45.616Z,4.17
2019-05-21T13:30:17.723Z,4.50
2019-05-21T13:32:49.466Z,4.20
2019-05-21T13:35:21.332Z,3.97
2019-05-21T13:37:53.528Z,4.50
2019-05-21T13:40:26.597Z,4.77
2019-05-21T13:42:58.598Z,4.37
2019-05-21T13:45:30.391Z,6.70
2019-05-21T13:48:02.831Z,4.50
2019-05-21T13:50:34.713Z,4.50
2019-05-21T13:53:06.734Z,3.77
2019-05-21T13:55:38.508Z,4.07
2019-05-21T13:58:10.280Z,3.87
2019-05-21T14:00:51.748Z,4.37
2019-05-21T14:03:23.621Z,3.97
2019-05-21T14:05:55.384Z,7.40
2019-05-21T14:08:27.451Z,6.33
2019-05-21T14:10:59.459Z,4.23
2019-05-21T14:13:31.431Z,4.90
2019-05-21T14:16:03.285Z,5.00
2019-05-21T14:18:35.751Z,3.33
2019-05-21T14:21:07.505Z,4.20
2019-05-21T14:23:39.549Z,4.43
2019-05-21T14:26:11.751Z,4.33
2019-05-21T14:28:43.611Z,8.10
2019-05-21T14:31:15.390Z,7.17
2019-05-21T14:33:47.483Z,6.53
2019-05-21T14:36:19.332Z,5.80
2019-05-21T14:38:51.325Z,6.40
2019-05-21T14:41:23.123Z,5.97
2019-05-21T14:43:55.003Z,6.43
2019-05-21T14:46:26.775Z,6.23
2019-05-21T14:48:58.547Z,5.63
2019-05-21T14:51:30.707Z,5.57
2019-05-21T14:54:03.602Z,5.20
2019-05-21T14:56:35.326Z,4.97
2019-05-21T14:59:07.460Z,5.70
2019-05-21T15:01:39.287Z,6.40
2019-05-21T15:04:11.085Z,6.00
2019-05-21T15:06:43.292Z,5.60
2019-05-21T15:09:15.148Z,6.10
2019-05-21T15:11:47.519Z,6.23
2019-05-21T15:14:19.405Z,6.33
2019-05-21T15:16:51.172Z,7.10
2019-05-21T15:19:23.010Z,6.30
2019-05-21T15:21:54.778Z,6.63
2019-05-21T15:24:26.907Z,7.10
2019-05-21T15:26:58.652Z,6.87
2019-05-21T15:29:30.738Z,7.33
2019-05-21T15:32:02.637Z,8.53
2019-05-21T15:34:34.495Z,7.03
2019-05-21T15:37:06.326Z,5.83
2019-05-21T15:39:38.441Z,5.10
2019-05-21T15:42:10.216Z,4.87
2019-05-21T15:44:42.709Z,4.40
2019-05-21T15:47:14.451Z,4.53
2019-05-21T15:49:46.296Z,4.53
2019-05-21T15:52:18.085Z,4.57
2019-05-21T15:54:49.856Z,6.23
2019-05-21T15:57:21.935Z,3.97
2019-05-21T15:59:53.916Z,4.93
2019-05-21T16:02:25.777Z,7.90
2019-05-21T16:04:57.555Z,3.63
2019-05-21T16:07:29.464Z,3.50
2019-05-21T16:10:01.721Z,3.53
2019-05-21T16:12:33.629Z,3.80
2019-05-21T16:15:06.402Z,4.37
2019-05-21T16:17:38.263Z,4.13
2019-05-21T16:20:10.344Z,4.30
2019-05-21T16:22:42.510Z,8.40
2019-05-21T16:25:15.252Z,5.37
2019-05-21T16:27:47.113Z,4.93
2019-05-21T16:30:21.576Z,4.63
2019-05-21T16:32:53.406Z,5.13
2019-05-21T16:35:25.947Z,4.93
2019-05-21T16:37:57.703Z,5.10
2019-05-21T16:40:29.756Z,5.20
2019-05-21T16:43:01.627Z,4.87
2019-05-21T16:45:33.624Z,4.63
2019-05-21T16:48:05.584Z,4.50
2019-05-21T16:50:37.438Z,4.50
2019-05-21T16:53:09.777Z,3.83
2019-05-21T16:55:41.540Z,3.97
2019-05-21T16:58:13.367Z,3.80
2019-05-21T17:00:45.161Z,3.73
2019-05-21T17:03:17.159Z,3.50
2019-05-21T17:05:49.072Z,3.83
2019-05-21T17:08:20.904Z,3.47
2019-05-21T17:10:52.986Z,3.80
2019-05-21T17:13:27.629Z,4.47
2019-05-21T17:15:59.366Z,3.27
2019-05-21T17:18:31.564Z,3.50
2019-05-21T17:21:03.403Z,4.00
2019-05-21T17:23:36.752Z,3.77
2019-05-21T17:26:08.884Z,4.50
2019-05-21T17:28:40.959Z,4.23
2019-05-21T17:31:13.046Z,4.80
2019-05-21T17:33:44.961Z,4.90
2019-05-21T17:36:16.817Z,4.67
2019-05-21T17:38:48.575Z,4.83
2019-05-21T17:41:20.403Z,5.03
2019-05-21T17:43:52.438Z,5.07
2019-05-21T17:46:24.296Z,5.07
2019-05-21T17:48:56.014Z,5.27
2019-05-21T17:51:27.752Z,4.73
2019-05-21T17:53:59.805Z,5.20
2019-05-21T17:56:31.856Z,5.17
2019-05-21T17:59:04.687Z,5.40
2019-05-21T18:01:37.013Z,5.30
2019-05-21T18:04:10.077Z,5.93
2019-05-21T18:06:43.154Z,6.10
2019-05-21T18:09:17.001Z,5.77
2019-05-21T18:11:49.130Z,5.60
2019-05-21T18:14:21.957Z,6.00
2019-05-21T18:16:53.963Z,6.10
2019-05-21T18:19:26.787Z,5.73
2019-05-21T18:21:59.762Z,6.17
2019-05-21T18:24:32.131Z,5.90
2019-05-21T18:27:04.477Z,6.53
2019-05-21T18:29:36.603Z,5.80
2019-05-21T18:32:08.779Z,6.00
2019-05-21T18:34:40.818Z,6.97
2019-05-21T18:37:12.559Z,6.77
2019-05-21T18:39:44.879Z,7.20
2019-05-21T18:42:22.142Z,7.27
2019-05-21T18:44:50.745Z,8.80
2019-05-21T18:47:22.930Z,8.77
2019-05-21T18:49:54.833Z,6.83
2019-05-21T18:52:26.612Z,7.30
2019-05-21T18:54:58.405Z,6.93
2019-05-21T18:57:30.308Z,7.13
2019-05-21T19:00:02.863Z,7.17
2019-05-21T19:02:35.599Z,6.93
2019-05-21T19:05:08.138Z,7.13
2019-05-21T19:07:39.985Z,7.57
2019-05-21T19:10:12.353Z,7.33
2019-05-21T19:12:44.465Z,6.20
2019-05-21T19:15:16.716Z,7.17
2019-05-21T19:17:48.728Z,6.80
2019-05-21T19:20:21.911Z,8.13
2019-05-21T19:22:54.536Z,7.37
2019-05-21T19:25:26.640Z,8.27
2019-05-21T19:27:58.551Z,8.53
2019-05-21T19:30:30.870Z,9.53
2019-05-21T19:33:03.718Z,9.37
2019-05-21T19:35:35.754Z,9.17
2019-05-21T19:38:07.811Z,8.40
2019-05-21T19:40:39.654Z,9.77
2019-05-21T19:43:11.946Z,9.80
2019-05-21T19:45:44.612Z,9.90
2019-05-21T19:48:16.578Z,10.37
2019-05-21T19:50:48.530Z,11.03
2019-05-21T19:53:20.283Z,10.87
2019-05-21T19:55:52.810Z,10.67
2019-05-21T19:58:24.713Z,11.13
2019-05-21T20:00:57.283Z,10.97
2019-05-21T20:03:29.615Z,10.53
2019-05-21T20:06:02.132Z,9.80
2019-05-21T20:08:34.336Z,10.37
2019-05-21T20:11:07.479Z,8.70
2019-05-21T20:13:39.210Z,7.83
2019-05-21T20:16:11.370Z,6.70
2019-05-21T20:18:43.263Z,6.17
2019-05-21T20:21:15.475Z,5.20
2019-05-21T20:23:47.776Z,5.03
2019-05-21T20:26:22.326Z,6.07
2019-05-21T20:28:54.797Z,6.17
2019-05-21T20:31:26.982Z,6.23
2019-05-21T20:34:00.337Z,5.77
2019-05-21T20:36:32.447Z,5.57
2019-05-21T20:39:08.015Z,4.60
2019-05-21T20:41:41.651Z,4.80
2019-05-21T20:44:15.294Z,4.60
2019-05-21T20:46:47.953Z,3.77
2019-05-21T20:49:21.300Z,4.83
2019-05-21T20:51:53.980Z,3.70
2019-05-21T20:54:27.240Z,4.77
2019-05-21T20:56:59.283Z,4.80
2019-05-21T20:59:31.762Z,4.80
2019-05-21T21:02:08.240Z,5.00
2019-05-21T21:04:38.973Z,5.30
2019-05-21T21:07:11.224Z,5.40
2019-05-21T21:09:43.801Z,5.60
2019-05-21T21:12:16.549Z,6.90
2019-05-21T21:14:49.471Z,7.10
2019-05-21T21:17:21.192Z,6.30
2019-05-21T21:19:53.052Z,5.80
2019-05-21T21:22:25.591Z,5.93
2019-05-21T21:24:57.964Z,6.27
2019-05-21T21:27:29.724Z,6.23
2019-05-21T21:30:01.888Z,6.50
2019-05-21T21:32:34.820Z,6.47
2019-05-21T21:35:08.545Z,10.43
2019-05-21T21:37:40.628Z,9.83
2019-05-21T21:40:16.282Z,8.63
2019-05-21T21:42:48.007Z,7.70
2019-05-21T21:45:19.785Z,7.97
2019-05-21T21:47:52.901Z,7.60
2019-05-21T21:50:25.681Z,7.43
2019-05-21T21:52:57.715Z,7.87
2019-05-21T21:55:31.938Z,8.20
2019-05-21T21:58:04.096Z,9.20
2019-05-21T22:01:19.264Z,9.70
2019-05-21T22:03:51.931Z,11.00
2019-05-21T22:06:24.731Z,11.10
2019-05-21T22:08:56.903Z,13.33
2019-05-21T22:11:29.551Z,14.10
2019-05-21T22:14:02.589Z,14.93
2019-05-21T22:16:34.451Z,14.47
2019-05-21T22:19:08.412Z,14.77
2019-05-21T22:21:40.514Z,15.03
2019-05-21T22:24:13.420Z,14.57
2019-05-21T22:26:45.700Z,14.80
2019-05-21T22:29:17.941Z,14.37
2019-05-21T22:31:50.051Z,14.80
2019-05-21T22:34:22.486Z,15.90
2019-05-21T22:36:54.287Z,15.40
2019-05-21T22:39:29.182Z,15.90
2019-05-21T22:42:01.750Z,16.17
2019-05-21T22:44:34.321Z,18.07
2019-05-21T22:47:06.908Z,17.47
2019-05-21T22:49:39.103Z,18.47
2019-05-21T22:52:12.060Z,16.90
2019-05-21T22:54:44.085Z,18.03
2019-05-21T22:57:16.271Z,17.97
2019-05-21T22:59:48.340Z,18.57
2019-05-21T23:02:25.161Z,18.30
2019-05-21T23:04:57.267Z,19.40
2019-05-21T23:07:29.426Z,18.53
2019-05-21T23:10:03.723Z,19.23
2019-05-21T23:12:36.443Z,17.90
2019-05-21T23:15:23.676Z,19.13
2019-05-21T23:17:42.562Z,17.70
2019-05-21T23:20:16.300Z,18.20
2019-05-21T23:22:48.540Z,18.50
2019-05-21T23:25:21.697Z,18.47
2019-05-21T23:27:55.157Z,20.20
2019-05-21T23:30:27.622Z,22.53
2019-05-21T23:32:59.733Z,22.30
2019-05-21T23:35:32.080Z,22.47
2019-05-21T23:38:05.375Z,22.33
2019-05-21T23:40:37.648Z,23.97
2019-05-21T23:43:10.286Z,24.20
2019-05-21T23:45:42.551Z,24.50
2019-05-21T23:48:15.536Z,25.83
2019-05-21T23:50:48.116Z,25.17
2019-05-21T23:53:20.471Z,25.63
2019-05-21T23:55:52.383Z,25.67
2019-05-21T23:58:24.125Z,28.20
